createdAt,value
2018-05-09T00:00:10.261Z,100781.06
2018-05-09T00:02:36.028Z,100781.71
2018-05-09T00:05:01.798Z,100784.85
2018-05-09T00:07:27.560Z,100786.36
2018-05-09T00:09:53.303Z,100786.85
2018-05-09T00:12:19.079Z,100786.92
2018-05-09T00:14:44.855Z,100788.44
2018-05-09T00:17:10.620Z,100782.64
2018-05-09T00:19:36.411Z,100785.71
2018-05-09T00:22:02.205Z,100783.58
2018-05-09T00:24:27.961Z,100781.61
2018-05-09T00:26:53.753Z,100778.88
2018-05-09T00:29:19.495Z,100783.61
2018-05-09T00:31:45.275Z,100782.62
2018-05-09T00:34:11.024Z,100777.58
2018-05-09T00:36:36.804Z,100777.66
2018-05-09T00:39:02.560Z,100781.73
2018-05-09T00:41:28.311Z,100772.20
2018-05-09T00:43:54.105Z,100767.10
2018-05-09T00:46:20.064Z,100768.45
2018-05-09T00:48:45.834Z,100772.16
2018-05-09T00:51:11.603Z,100770.78
2018-05-09T00:53:37.364Z,100764.91
2018-05-09T00:56:03.165Z,100767.81
2018-05-09T00:58:28.942Z,100765.43
2018-05-09T01:00:54.744Z,100767.91
2018-05-09T01:03:20.503Z,100762.88
2018-05-09T01:05:46.273Z,100763.63
2018-05-09T01:08:12.039Z,100763.29
2018-05-09T01:10:37.808Z,100755.04
2018-05-09T01:13:03.621Z,100761.58
2018-05-09T01:15:29.364Z,100768.02
2018-05-09T01:17:55.128Z,100761.56
2018-05-09T01:20:20.891Z,100758.92
2018-05-09T01:22:46.663Z,100759.59
2018-05-09T01:25:12.443Z,100755.39
2018-05-09T01:27:38.200Z,100759.84
2018-05-09T01:30:03.986Z,100758.70
2018-05-09T01:32:29.738Z,100753.74
2018-05-09T01:34:55.499Z,100756.57
2018-05-09T01:37:21.272Z,100761.03
2018-05-09T01:39:47.036Z,100753.91
2018-05-09T01:42:12.807Z,100747.22
2018-05-09T01:44:38.583Z,100748.23
2018-05-09T01:47:04.367Z,100743.69
2018-05-09T01:49:30.122Z,100741.12
2018-05-09T01:51:55.904Z,100737.52
2018-05-09T01:54:21.659Z,100734.30
2018-05-09T01:56:47.435Z,100736.77
2018-05-09T01:59:13.204Z,100740.65
2018-05-09T02:01:38.980Z,100741.95
2018-05-09T02:04:04.765Z,100740.22
2018-05-09T02:06:30.528Z,100733.61
2018-05-09T02:08:56.295Z,100742.03
2018-05-09T02:11:22.072Z,100734.01
2018-05-09T02:13:47.827Z,100740.87
2018-05-09T02:16:13.588Z,100736.25
2018-05-09T02:18:39.355Z,100729.48
2018-05-09T02:21:05.355Z,100735.85
2018-05-09T02:23:31.107Z,100729.31
2018-05-09T02:25:56.928Z,100729.88
2018-05-09T02:28:22.682Z,100733.12
2018-05-09T02:30:48.461Z,100727.67
2018-05-09T02:33:14.216Z,100727.50
2018-05-09T02:35:40.012Z,100732.03
2018-05-09T02:38:05.771Z,100734.02
2018-05-09T02:40:31.540Z,100731.55
2018-05-09T02:42:57.297Z,100736.98
2018-05-09T02:45:23.076Z,100734.59
2018-05-09T02:47:48.824Z,100734.42
2018-05-09T02:50:14.606Z,100736.52
2018-05-09T02:52:40.361Z,100738.89
2018-05-09T02:55:06.123Z,100727.08
2018-05-09T02:57:32.146Z,100735.91
2018-05-09T02:59:57.994Z,100730.88
2018-05-09T03:02:23.756Z,100731.78
2018-05-09T03:04:49.537Z,100736.06
2018-05-09T03:07:15.287Z,100732.35
2018-05-09T03:09:41.035Z,100732.29
2018-05-09T03:12:06.822Z,100740.11
2018-05-09T03:14:32.571Z,100742.17
2018-05-09T03:16:58.366Z,100747.70
2018-05-09T03:19:24.123Z,100745.72
2018-05-09T03:21:49.907Z,100746.04
2018-05-09T03:24:15.876Z,100747.43
2018-05-09T03:26:48.444Z,100748.51
2018-05-09T03:29:14.213Z,100744.20
2018-05-09T03:31:39.981Z,100750.08
2018-05-09T03:34:05.744Z,100751.16
2018-05-09T03:36:31.531Z,100750.73
2018-05-09T03:38:57.280Z,100756.16
2018-05-09T03:41:23.051Z,100748.48
2018-05-09T03:43:48.810Z,100751.38
2018-05-09T03:46:14.571Z,100748.66
2018-05-09T03:48:40.352Z,100749.49
2018-05-09T03:51:06.119Z,100744.28
2018-05-09T03:53:31.910Z,100739.84
2018-05-09T03:55:57.679Z,100742.78
2018-05-09T03:58:23.432Z,100744.94
2018-05-09T04:00:49.233Z,100745.28
2018-05-09T04:03:27.419Z,100743.06
2018-05-09T04:06:05.459Z,100749.31
2018-05-09T04:08:43.395Z,100753.55
2018-05-09T04:11:09.170Z,100751.56
2018-05-09T04:13:34.916Z,100760.48
2018-05-09T04:16:00.687Z,100751.48
2018-05-09T04:18:26.437Z,100755.62
2018-05-09T04:20:52.251Z,100754.54
2018-05-09T04:23:17.991Z,100754.64
2018-05-09T04:25:44.005Z,100756.20
2018-05-09T04:28:09.773Z,100751.43
2018-05-09T04:30:35.525Z,100749.62
2018-05-09T04:33:01.300Z,100752.01
2018-05-09T04:35:27.082Z,100751.34
2018-05-09T04:37:52.874Z,100751.52
2018-05-09T04:40:18.678Z,100750.95
2018-05-09T04:42:44.460Z,100751.05
2018-05-09T04:45:10.211Z,100751.70
2018-05-09T04:47:35.979Z,100749.13
2018-05-09T04:50:01.748Z,100745.84
2018-05-09T04:52:27.527Z,100746.25
2018-05-09T04:54:53.299Z,100750.05
2018-05-09T04:57:19.236Z,100749.14
2018-05-09T04:59:45.115Z,100743.11
2018-05-09T05:02:10.894Z,100747.41
2018-05-09T05:04:36.679Z,100747.24
2018-05-09T05:07:02.446Z,100747.60
2018-05-09T05:09:28.216Z,100748.73
2018-05-09T05:11:53.991Z,100748.63
2018-05-09T05:14:19.732Z,100750.95
2018-05-09T05:16:45.690Z,100757.05
2018-05-09T05:19:11.459Z,100745.31
2018-05-09T05:21:37.645Z,100749.70
2018-05-09T05:24:03.419Z,100752.42
2018-05-09T05:26:29.184Z,100745.95
2018-05-09T05:28:54.932Z,100756.95
2018-05-09T05:31:20.741Z,100754.27
2018-05-09T05:33:46.511Z,100747.64
2018-05-09T05:36:12.278Z,100751.59
2018-05-09T05:38:38.046Z,100746.84
2018-05-09T05:41:03.833Z,100743.59
2018-05-09T05:43:29.606Z,100743.16
2018-05-09T05:45:55.363Z,100743.20
2018-05-09T05:48:21.139Z,100744.50
2018-05-09T05:50:46.881Z,100757.88
2018-05-09T05:53:12.655Z,100755.70
2018-05-09T05:55:38.407Z,100759.06
2018-05-09T05:58:04.207Z,100767.50
2018-05-09T06:00:29.956Z,100772.00
2018-05-09T06:02:55.943Z,100772.80
2018-05-09T06:05:21.719Z,100765.48
2018-05-09T06:07:47.479Z,100772.64
2018-05-09T06:10:13.236Z,100765.25
2018-05-09T06:12:39.021Z,100760.30
2018-05-09T06:15:04.763Z,100755.42
2018-05-09T06:17:30.531Z,100756.80
2018-05-09T06:19:56.292Z,100759.11
2018-05-09T06:22:22.151Z,100760.70
2018-05-09T06:24:47.912Z,100761.81
2018-05-09T06:27:13.657Z,100760.91
2018-05-09T06:29:39.436Z,100757.44
2018-05-09T06:32:05.175Z,100759.27
2018-05-09T06:34:30.973Z,100758.29
2018-05-09T06:36:56.760Z,100747.12
2018-05-09T06:39:22.552Z,100754.09
2018-05-09T06:41:48.316Z,100754.38
2018-05-09T06:44:14.083Z,100760.26
2018-05-09T06:46:39.824Z,100755.97
2018-05-09T06:49:05.604Z,100762.94
2018-05-09T06:51:31.360Z,100768.27
2018-05-09T06:53:57.127Z,100771.52
2018-05-09T06:56:22.896Z,100770.93
2018-05-09T06:58:48.670Z,100763.52
2018-05-09T07:01:14.432Z,100772.71
2018-05-09T07:03:40.228Z,100769.34
2018-05-09T07:06:05.991Z,100771.06
2018-05-09T07:08:31.732Z,100776.62
2018-05-09T07:10:57.545Z,100783.16
2018-05-09T07:13:23.295Z,100770.47
2018-05-09T07:15:49.047Z,100772.72
2018-05-09T07:18:14.930Z,100764.50
2018-05-09T07:20:40.613Z,100770.16
2018-05-09T07:23:06.767Z,100769.23
2018-05-09T07:25:32.484Z,100764.78
2018-05-09T07:27:58.242Z,100764.53
2018-05-09T07:30:24.041Z,100762.00
2018-05-09T07:32:49.796Z,100764.20
2018-05-09T07:35:15.841Z,100760.29
2018-05-09T07:37:41.627Z,100760.98
2018-05-09T07:40:07.414Z,100755.70
2018-05-09T07:42:33.183Z,100755.97
2018-05-09T07:44:58.935Z,100762.03
2018-05-09T07:47:24.739Z,100757.98
2018-05-09T07:49:50.475Z,100757.42
2018-05-09T07:52:16.227Z,100763.75
2018-05-09T07:54:41.985Z,100760.81
2018-05-09T07:57:07.787Z,100764.95
2018-05-09T07:59:33.562Z,100763.56
2018-05-09T08:01:59.343Z,100763.69
2018-05-09T08:04:25.095Z,100746.80
2018-05-09T08:06:50.863Z,100762.73
2018-05-09T08:09:16.618Z,100768.60
2018-05-09T08:11:42.356Z,100760.01
2018-05-09T08:14:08.115Z,100756.06
2018-05-09T08:16:33.866Z,100753.64
2018-05-09T08:18:59.632Z,100755.50
2018-05-09T08:21:25.380Z,100760.41
2018-05-09T08:23:51.190Z,100754.47
2018-05-09T08:26:16.943Z,100753.69
2018-05-09T08:28:42.675Z,100756.36
2018-05-09T08:31:08.490Z,100758.49
2018-05-09T08:33:34.237Z,100760.78
2018-05-09T08:36:00.051Z,100755.98
2018-05-09T08:38:25.840Z,100763.13
2018-05-09T08:40:51.599Z,100753.77
2018-05-09T08:43:17.416Z,100753.23
2018-05-09T08:45:43.135Z,100758.97
2018-05-09T08:48:08.887Z,100757.12
2018-05-09T08:50:34.663Z,100760.37
2018-05-09T08:53:00.421Z,100755.12
2018-05-09T08:55:26.283Z,100747.01
2018-05-09T08:57:51.953Z,100752.64
2018-05-09T09:00:17.703Z,100753.32
2018-05-09T09:02:43.458Z,100749.13
2018-05-09T09:05:09.233Z,100747.97
2018-05-09T09:07:34.971Z,100746.16
2018-05-09T09:10:00.752Z,100743.56
2018-05-09T09:12:26.506Z,100745.53
2018-05-09T09:14:52.299Z,100739.08
2018-05-09T09:17:18.087Z,100741.92
2018-05-09T09:19:43.876Z,100725.73
2018-05-09T09:22:09.715Z,100732.51
2018-05-09T09:24:35.464Z,100732.92
2018-05-09T09:27:01.236Z,100732.45
2018-05-09T09:29:26.995Z,100727.09
2018-05-09T09:31:52.751Z,100726.00
2018-05-09T09:34:18.518Z,100724.25
2018-05-09T09:36:44.287Z,100724.16
2018-05-09T09:39:10.052Z,100720.17
2018-05-09T09:41:35.803Z,100721.95
2018-05-09T09:44:01.574Z,100715.46
2018-05-09T09:46:27.347Z,100714.50
2018-05-09T09:48:53.115Z,100710.73
2018-05-09T09:51:18.867Z,100715.02
2018-05-09T09:53:44.634Z,100707.70
2018-05-09T09:56:10.391Z,100711.02
2018-05-09T09:58:36.151Z,100704.83
2018-05-09T10:01:01.938Z,100709.92
2018-05-09T10:03:27.689Z,100701.05
2018-05-09T10:05:53.440Z,100698.46
2018-05-09T10:08:19.215Z,100696.98
2018-05-09T10:10:44.964Z,100698.59
2018-05-09T10:13:10.739Z,100696.59
2018-05-09T10:15:36.512Z,100687.34
2018-05-09T10:18:02.299Z,100681.20
2018-05-09T10:20:28.084Z,100687.81
2018-05-09T10:22:53.851Z,100680.00
2018-05-09T10:25:19.620Z,100678.41
2018-05-09T10:27:45.365Z,100677.93
2018-05-09T10:30:11.131Z,100678.69
2018-05-09T10:32:36.882Z,100675.84
2018-05-09T10:35:02.696Z,100673.17
2018-05-09T10:37:28.446Z,100666.63
2018-05-09T10:39:54.239Z,100664.47
2018-05-09T10:42:19.992Z,100662.67
2018-05-09T10:44:45.753Z,100664.70
2018-05-09T10:47:11.531Z,100659.66
2018-05-09T10:49:37.527Z,100654.23
2018-05-09T10:52:03.330Z,100658.38
2018-05-09T10:54:29.072Z,100654.15
2018-05-09T10:56:54.827Z,100656.83
2018-05-09T10:59:20.587Z,100649.50
2018-05-09T11:01:46.366Z,100652.75
2018-05-09T11:04:12.114Z,100654.97
2018-05-09T11:06:37.919Z,100648.61
2018-05-09T11:09:04.659Z,100649.38
2018-05-09T11:11:30.420Z,100650.83
2018-05-09T11:13:56.200Z,100650.00
2018-05-09T11:16:21.987Z,100646.95
2018-05-09T11:18:47.730Z,100644.82
2018-05-09T11:21:13.527Z,100644.99
2018-05-09T11:23:39.361Z,100648.28
2018-05-09T11:26:05.438Z,100634.95
2018-05-09T11:28:31.191Z,100643.27
2018-05-09T11:30:56.969Z,100637.06
2018-05-09T11:33:22.731Z,100643.30
2018-05-09T11:35:48.506Z,100637.36
2018-05-09T11:38:14.293Z,100634.45
2018-05-09T11:40:40.041Z,100621.78
2018-05-09T11:43:05.976Z,100628.66
2018-05-09T11:45:31.821Z,100623.74
2018-05-09T11:47:57.602Z,100619.98
2018-05-09T11:50:23.356Z,100611.09
2018-05-09T11:52:49.112Z,100614.13
2018-05-09T11:55:14.888Z,100607.02
2018-05-09T11:57:40.660Z,100604.91
2018-05-09T12:00:06.436Z,100608.61
2018-05-09T12:02:32.284Z,100600.87
2018-05-09T12:04:58.008Z,100603.27
2018-05-09T12:07:23.905Z,100600.42
2018-05-09T12:09:49.659Z,100601.43
2018-05-09T12:12:15.440Z,100599.11
2018-05-09T12:14:41.199Z,100597.05
2018-05-09T12:17:07.000Z,100601.39
2018-05-09T12:19:32.768Z,100603.19
2018-05-09T12:21:58.557Z,100597.73
2018-05-09T12:24:24.356Z,100597.39
2018-05-09T12:26:50.099Z,100588.38
2018-05-09T12:29:15.880Z,100582.70
2018-05-09T12:31:41.668Z,100579.32
2018-05-09T12:34:07.498Z,100574.19
2018-05-09T12:36:33.309Z,100581.08
2018-05-09T12:38:59.051Z,100576.86
2018-05-09T12:41:24.871Z,100566.50
2018-05-09T12:43:50.652Z,100567.69
2018-05-09T12:46:16.404Z,100575.24
2018-05-09T12:48:42.191Z,100565.30
2018-05-09T12:51:07.974Z,100566.94
2018-05-09T12:53:33.743Z,100567.99
2018-05-09T12:55:59.503Z,100562.42
2018-05-09T12:58:25.325Z,100556.39
2018-05-09T13:00:51.367Z,100561.59
2018-05-09T13:03:17.170Z,100551.63
2018-05-09T13:05:42.940Z,100552.42
2018-05-09T13:08:08.720Z,100552.71
2018-05-09T13:10:34.507Z,100551.23
2018-05-09T13:13:00.252Z,100539.63
2018-05-09T13:15:26.044Z,100538.25
2018-05-09T13:17:51.800Z,100539.09
2018-05-09T13:20:17.820Z,100534.71
2018-05-09T13:22:43.912Z,100526.00
2018-05-09T13:25:09.717Z,100536.92
2018-05-09T13:27:35.485Z,100525.86
2018-05-09T13:30:01.258Z,100519.43
2018-05-09T13:32:27.039Z,100516.02
2018-05-09T13:34:52.831Z,100511.99
2018-05-09T13:37:18.611Z,100518.34
2018-05-09T13:39:44.396Z,100508.91
2018-05-09T13:42:10.172Z,100505.72
2018-05-09T13:44:35.973Z,100516.09
2018-05-09T13:47:01.727Z,100512.01
2018-05-09T13:49:27.524Z,100505.33
2018-05-09T13:51:53.271Z,100504.26
2018-05-09T13:54:19.053Z,100504.61
2018-05-09T13:56:44.831Z,100502.45
2018-05-09T13:59:10.643Z,100496.18
2018-05-09T14:01:36.416Z,100489.98
2018-05-09T14:04:02.184Z,100483.42
2018-05-09T14:06:27.959Z,100489.55
2018-05-09T14:08:53.711Z,100487.77
2018-05-09T14:11:19.488Z,100481.88
2018-05-09T14:13:45.264Z,100489.17
2018-05-09T14:16:11.067Z,100479.75
2018-05-09T14:18:36.831Z,100475.88
2018-05-09T14:21:02.654Z,100470.13
2018-05-09T14:23:28.743Z,100467.69
2018-05-09T14:25:54.588Z,100467.27
2018-05-09T14:28:20.339Z,100460.87
2018-05-09T14:30:46.129Z,100460.70
2018-05-09T14:33:11.892Z,100449.34
2018-05-09T14:35:37.913Z,100450.56
2018-05-09T14:38:03.697Z,100450.98
2018-05-09T14:40:29.464Z,100445.42
2018-05-09T14:42:55.255Z,100449.79
2018-05-09T14:45:21.008Z,100448.70
2018-05-09T14:47:46.965Z,100448.73
2018-05-09T14:50:12.785Z,100432.98
2018-05-09T14:52:38.584Z,100439.21
2018-05-09T14:55:04.345Z,100432.06
2018-05-09T14:57:30.137Z,100431.94
2018-05-09T14:59:56.151Z,100432.56
2018-05-09T15:02:21.943Z,100435.77
2018-05-09T15:04:47.748Z,100432.72
2018-05-09T15:07:13.507Z,100427.66
2018-05-09T15:09:39.329Z,100423.97
2018-05-09T15:12:05.119Z,100420.48
2018-05-09T15:14:30.879Z,100417.03
2018-05-09T15:16:56.636Z,100419.52
2018-05-09T15:19:22.416Z,100411.50
2018-05-09T15:21:48.208Z,100415.80
2018-05-09T15:24:13.989Z,100409.36
2018-05-09T15:26:39.775Z,100423.59
2018-05-09T15:29:05.564Z,100410.23
2018-05-09T15:31:31.351Z,100408.12
2018-05-09T15:33:57.100Z,100409.50
2018-05-09T15:36:22.985Z,100408.19
2018-05-09T15:38:48.740Z,100404.55
2018-05-09T15:41:14.588Z,100405.08
2018-05-09T15:43:40.323Z,100402.33
2018-05-09T15:46:06.083Z,100401.84
2018-05-09T15:48:31.841Z,100402.59
2018-05-09T15:50:57.628Z,100398.06
2018-05-09T15:53:23.442Z,100399.79
2018-05-09T15:55:49.201Z,100392.58
2018-05-09T15:58:14.943Z,100397.21
2018-05-09T16:00:41.120Z,100391.45
2018-05-09T16:03:06.919Z,100390.66
2018-05-09T16:05:32.712Z,100386.62
2018-05-09T16:07:58.504Z,100385.94
2018-05-09T16:10:24.309Z,100389.34
2018-05-09T16:12:50.053Z,100388.95
2018-05-09T16:15:15.852Z,100395.78
2018-05-09T16:17:41.641Z,100397.06
2018-05-09T16:20:07.408Z,100388.61
2018-05-09T16:22:33.319Z,100384.90
2018-05-09T16:24:59.010Z,100385.34
2018-05-09T16:27:24.759Z,100379.14
2018-05-09T16:29:50.872Z,100378.52
2018-05-09T16:32:16.719Z,100385.48
2018-05-09T16:34:42.463Z,100381.65
2018-05-09T16:37:08.295Z,100387.20
2018-05-09T16:39:34.052Z,100384.39
2018-05-09T16:41:59.844Z,100380.59
2018-05-09T16:44:25.636Z,100371.43
2018-05-09T16:46:51.662Z,100381.63
2018-05-09T16:49:17.439Z,100382.57
2018-05-09T16:51:43.191Z,100375.81
2018-05-09T16:54:08.950Z,100376.64
2018-05-09T16:56:34.751Z,100372.31
2018-05-09T16:59:00.508Z,100372.31
2018-05-09T17:01:26.617Z,100368.12
2018-05-09T17:03:52.319Z,100370.14
2018-05-09T17:06:18.116Z,100366.52
2018-05-09T17:08:43.872Z,100364.23
2018-05-09T17:11:09.632Z,100366.37
2018-05-09T17:13:35.382Z,100363.94
2018-05-09T17:16:01.148Z,100359.37
2018-05-09T17:18:26.921Z,100360.84
2018-05-09T17:20:52.704Z,100358.45
2018-05-09T17:23:18.484Z,100359.20
2018-05-09T17:25:44.507Z,100362.41
2018-05-09T17:28:10.283Z,100361.48
2018-05-09T17:30:36.044Z,100364.97
2018-05-09T17:33:01.824Z,100355.86
2018-05-09T17:35:27.588Z,100356.91
2018-05-09T17:37:53.380Z,100355.34
2018-05-09T17:40:19.140Z,100358.39
2018-05-09T17:42:45.134Z,100358.22
2018-05-09T17:45:10.920Z,100355.78
2018-05-09T17:47:36.760Z,100352.83
2018-05-09T17:50:02.524Z,100347.98
2018-05-09T17:52:29.116Z,100348.23
2018-05-09T17:54:54.851Z,100348.58
2018-05-09T17:57:20.867Z,100352.19
2018-05-09T17:59:46.644Z,100346.18
2018-05-09T18:02:12.425Z,100351.21
2018-05-09T18:04:38.286Z,100347.03
2018-05-09T18:07:04.090Z,100353.08
2018-05-09T18:09:29.828Z,100351.84
2018-05-09T18:11:55.600Z,100348.44
2018-05-09T18:14:21.368Z,100353.07
2018-05-09T18:16:47.136Z,100355.93
2018-05-09T18:19:12.912Z,100353.56
2018-05-09T18:21:38.760Z,100357.78
2018-05-09T18:24:04.495Z,100358.49
2018-05-09T18:26:30.289Z,100358.40
2018-05-09T18:28:56.034Z,100357.64
2018-05-09T18:31:21.768Z,100359.39
2018-05-09T18:33:47.512Z,100356.50
2018-05-09T18:36:13.262Z,100360.10
2018-05-09T18:38:39.084Z,100360.98
2018-05-09T18:41:04.824Z,100361.87
2018-05-09T18:43:30.649Z,100362.25
2018-05-09T18:45:56.430Z,100366.39
2018-05-09T18:48:22.180Z,100369.31
2018-05-09T18:50:47.940Z,100374.98
2018-05-09T18:53:13.899Z,100368.77
2018-05-09T18:55:39.668Z,100370.13
2018-05-09T18:58:05.451Z,100369.23
2018-05-09T19:00:31.560Z,100364.97
2018-05-09T19:02:57.335Z,100366.78
2018-05-09T19:05:23.094Z,100365.53
2018-05-09T19:07:49.021Z,100367.98
2018-05-09T19:10:14.843Z,100362.23
2018-05-09T19:12:40.654Z,100368.63
2018-05-09T19:15:06.404Z,100367.30
2018-05-09T19:17:32.475Z,100365.31
2018-05-09T19:19:58.219Z,100373.73
2018-05-09T19:22:23.975Z,100377.44
2018-05-09T19:24:49.750Z,100372.47
2018-05-09T19:27:15.576Z,100373.25
2018-05-09T19:29:41.374Z,100381.28
2018-05-09T19:32:07.120Z,100378.47
2018-05-09T19:34:32.905Z,100377.19
2018-05-09T19:36:58.722Z,100376.61
2018-05-09T19:39:24.485Z,100378.11
2018-05-09T19:41:50.345Z,100378.55
2018-05-09T19:44:16.094Z,100385.02
2018-05-09T19:46:41.855Z,100381.27
2018-05-09T19:49:07.672Z,100380.10
2018-05-09T19:51:33.424Z,100382.45
2018-05-09T19:53:59.280Z,100378.05
2018-05-09T19:56:25.051Z,100376.88
2018-05-09T19:58:50.836Z,100381.15
2018-05-09T20:01:16.628Z,100373.98
2018-05-09T20:03:42.457Z,100373.00
2018-05-09T20:06:08.207Z,100383.90
2018-05-09T20:08:34.021Z,100381.80
2018-05-09T20:10:59.799Z,100385.31
2018-05-09T20:13:25.567Z,100374.37
2018-05-09T20:15:51.342Z,100378.20
2018-05-09T20:18:17.140Z,100384.75
2018-05-09T20:20:42.903Z,100386.31
2018-05-09T20:23:09.246Z,100386.30
2018-05-09T20:25:35.311Z,100392.30
2018-05-09T20:28:01.059Z,100392.63
2018-05-09T20:30:33.039Z,100398.27
2018-05-09T20:32:58.812Z,100393.41
2018-05-09T20:35:24.596Z,100394.67
2018-05-09T20:37:50.350Z,100398.36
2018-05-09T20:40:16.204Z,100395.69
2018-05-09T20:42:42.088Z,100393.99
2018-05-09T20:45:07.844Z,100398.74
2018-05-09T20:47:33.634Z,100400.94
2018-05-09T20:49:59.388Z,100403.13
2018-05-09T20:52:25.179Z,100403.92
2018-05-09T20:54:50.943Z,100395.66
2018-05-09T20:57:16.719Z,100401.33
2018-05-09T20:59:42.498Z,100402.18
2018-05-09T21:02:23.432Z,100402.65
2018-05-09T21:04:49.268Z,100404.41
2018-05-09T21:07:15.043Z,100403.59
2018-05-09T21:09:40.872Z,100410.19
2018-05-09T21:12:09.601Z,100406.11
2018-05-09T21:14:35.429Z,100403.45
2018-05-09T21:17:01.199Z,100399.09
2018-05-09T21:19:27.020Z,100397.27
2018-05-09T21:21:52.804Z,100404.30
2018-05-09T21:24:18.605Z,100402.05
2018-05-09T21:26:44.356Z,100397.22
2018-05-09T21:29:10.115Z,100397.23
2018-05-09T21:31:35.872Z,100404.54
2018-05-09T21:34:01.631Z,100400.86
2018-05-09T21:36:27.620Z,100397.09
2018-05-09T21:38:53.404Z,100405.33
2018-05-09T21:41:19.162Z,100402.88
2018-05-09T21:43:44.946Z,100401.36
2018-05-09T21:46:10.695Z,100401.27
2018-05-09T21:48:36.460Z,100399.94
2018-05-09T21:51:02.249Z,100402.95
2018-05-09T21:53:28.012Z,100399.27
2018-05-09T21:55:53.818Z,100402.66
2018-05-09T21:58:19.594Z,100397.43
2018-05-09T22:00:45.396Z,100394.58
2018-05-09T22:03:11.169Z,100391.50
2018-05-09T22:05:36.961Z,100395.70
2018-05-09T22:08:02.779Z,100391.11
2018-05-09T22:10:28.564Z,100386.50
2018-05-09T22:12:54.319Z,100382.72
2018-05-09T22:15:20.104Z,100382.84
2018-05-09T22:17:45.855Z,100386.33
2018-05-09T22:20:11.932Z,100380.17
2018-05-09T22:22:37.694Z,100376.30
2018-05-09T22:25:03.475Z,100378.13
2018-05-09T22:27:29.252Z,100377.11
2018-05-09T22:29:55.031Z,100374.76
2018-05-09T22:32:21.124Z,100371.48
2018-05-09T22:34:46.896Z,100374.36
2018-05-09T22:37:12.845Z,100373.44
2018-05-09T22:39:38.656Z,100377.64
2018-05-09T22:42:04.503Z,100376.28
2018-05-09T22:44:30.273Z,100371.06
2018-05-09T22:46:56.063Z,100372.20
2018-05-09T22:49:21.803Z,100365.54
2018-05-09T22:51:47.578Z,100360.20
2018-05-09T22:54:13.371Z,100358.98
2018-05-09T22:56:39.211Z,100354.89
2018-05-09T22:59:04.999Z,100353.64
2018-05-09T23:01:30.805Z,100355.19
2018-05-09T23:03:56.652Z,100355.30
2018-05-09T23:06:22.463Z,100354.08
2018-05-09T23:08:48.209Z,100351.41
2018-05-09T23:11:13.991Z,100348.85
2018-05-09T23:13:40.335Z,100347.42
2018-05-09T23:16:06.106Z,100346.99
2018-05-09T23:18:31.872Z,100344.53
2018-05-09T23:20:57.647Z,100349.84
2018-05-09T23:23:23.727Z,100346.78
2018-05-09T23:25:49.506Z,100347.17
2018-05-09T23:28:15.275Z,100342.88
2018-05-09T23:30:41.028Z,100343.88
2018-05-09T23:33:06.776Z,100350.21
2018-05-09T23:35:32.608Z,100342.72
2018-05-09T23:37:58.360Z,100341.97
2018-05-09T23:40:24.135Z,100336.02
2018-05-09T23:42:49.879Z,100337.04
2018-05-09T23:45:15.651Z,100329.17
2018-05-09T23:47:41.660Z,100331.61
2018-05-09T23:50:07.680Z,100331.58
2018-05-09T23:52:33.670Z,100326.25
2018-05-09T23:54:59.480Z,100324.10
2018-05-09T23:57:25.305Z,100322.96
2018-05-09T23:59:51.078Z,100318.87
